createdAt,value
2023-10-23T00:00:27.761Z,2.50
2023-10-23T00:03:15.615Z,4.00
2023-10-23T00:06:02.298Z,3.00
2023-10-23T00:08:48.398Z,2.80
2023-10-23T00:11:34.675Z,2.97
2023-10-23T00:14:21.159Z,2.73
2023-10-23T00:17:07.344Z,2.80
2023-10-23T00:19:54.939Z,2.70
2023-10-23T00:22:41.124Z,2.70
2023-10-23T00:25:27.223Z,2.40
2023-10-23T00:28:13.541Z,2.37
2023-10-23T00:31:00.144Z,2.70
2023-10-23T00:33:46.978Z,2.70
2023-10-23T00:36:34.976Z,2.83
2023-10-23T00:39:22.356Z,2.80
2023-10-23T00:42:09.223Z,2.37
2023-10-23T00:44:55.986Z,3.10
2023-10-23T00:47:42.244Z,2.23
2023-10-23T00:50:28.997Z,2.87
2023-10-23T00:53:17.340Z,2.90
2023-10-23T00:56:05.844Z,2.50
2023-10-23T00:58:52.592Z,2.60
2023-10-23T01:01:39.150Z,3.00
2023-10-23T01:04:25.866Z,2.97
2023-10-23T01:07:12.590Z,3.17
2023-10-23T01:10:00.052Z,2.87
2023-10-23T01:12:46.484Z,2.97
2023-10-23T01:15:33.407Z,2.60
2023-10-23T01:18:20.451Z,2.80
2023-10-23T01:21:06.923Z,2.80
2023-10-23T01:23:53.958Z,2.50
2023-10-23T01:26:41.663Z,2.93
2023-10-23T01:29:27.863Z,2.97
2023-10-23T01:32:14.193Z,2.47
2023-10-23T01:35:00.348Z,2.00
2023-10-23T01:37:46.843Z,3.03
2023-10-23T01:40:33.750Z,3.67
2023-10-23T01:43:21.524Z,2.70
2023-10-23T01:46:07.787Z,2.60
2023-10-23T01:48:54.517Z,2.80
2023-10-23T01:51:42.259Z,2.60
2023-10-23T01:54:29.048Z,3.17
2023-10-23T01:57:15.872Z,2.57
2023-10-23T02:00:06.266Z,2.80
2023-10-23T02:02:59.156Z,2.90
2023-10-23T02:05:47.618Z,2.77
2023-10-23T02:08:34.112Z,3.00
2023-10-23T02:11:21.144Z,3.10
2023-10-23T02:14:07.708Z,3.00
2023-10-23T02:16:55.184Z,2.87
2023-10-23T02:19:41.339Z,3.23
2023-10-23T02:22:27.550Z,3.60
2023-10-23T02:25:13.828Z,3.10
2023-10-23T02:28:00.045Z,3.10
2023-10-23T02:30:47.060Z,2.70
2023-10-23T02:33:35.035Z,3.03
2023-10-23T02:36:21.899Z,3.13
2023-10-23T02:39:11.137Z,3.27
2023-10-23T02:41:57.593Z,3.33
2023-10-23T02:44:45.554Z,3.63
2023-10-23T02:47:32.044Z,3.53
2023-10-23T02:50:20.267Z,3.30
2023-10-23T02:53:07.861Z,3.07
2023-10-23T02:55:54.048Z,3.10
2023-10-23T02:58:40.301Z,3.57
2023-10-23T03:01:26.645Z,3.50
2023-10-23T03:04:13.292Z,4.43
2023-10-23T03:07:01.506Z,3.50
2023-10-23T03:09:48.784Z,3.53
2023-10-23T03:12:36.982Z,3.50
2023-10-23T03:15:23.522Z,4.27
2023-10-23T03:18:10.387Z,3.27
2023-10-23T03:21:01.021Z,3.50
2023-10-23T03:23:49.336Z,3.80
2023-10-23T03:26:36.021Z,3.50
2023-10-23T03:29:22.412Z,3.47
2023-10-23T03:32:08.674Z,3.60
2023-10-23T03:34:55.359Z,3.20
2023-10-23T03:37:41.532Z,3.77
2023-10-23T03:40:29.993Z,3.60
2023-10-23T03:43:16.313Z,3.47
2023-10-23T03:46:05.977Z,3.57
2023-10-23T03:48:53.448Z,3.30
2023-10-23T03:51:40.009Z,3.10
2023-10-23T03:54:26.740Z,3.70
2023-10-23T03:57:15.006Z,3.73
2023-10-23T04:00:01.343Z,3.20
2023-10-23T04:02:47.986Z,3.97
2023-10-23T04:05:34.519Z,3.00
2023-10-23T04:08:20.851Z,3.10
2023-10-23T04:11:07.551Z,3.00
2023-10-23T04:13:55.363Z,2.97
2023-10-23T04:16:41.651Z,3.30
2023-10-23T04:19:28.286Z,3.40
2023-10-23T04:22:14.789Z,3.50
2023-10-23T04:25:01.002Z,2.60
2023-10-23T04:27:47.397Z,2.83
2023-10-23T04:30:35.626Z,2.97
2023-10-23T04:33:24.635Z,3.00
2023-10-23T04:36:11.223Z,3.10
2023-10-23T04:38:58.073Z,3.03
2023-10-23T04:41:44.311Z,3.07
2023-10-23T04:44:30.552Z,3.70
2023-10-23T04:47:18.671Z,3.30
2023-10-23T04:50:06.661Z,2.90
2023-10-23T04:52:55.179Z,2.90
2023-10-23T04:55:42.472Z,3.10
2023-10-23T04:58:29.002Z,3.20
2023-10-23T05:01:19.267Z,3.47
2023-10-23T05:04:07.965Z,3.80
2023-10-23T05:06:55.116Z,3.07
2023-10-23T05:09:42.283Z,2.93
2023-10-23T05:12:29.630Z,3.07
2023-10-23T05:15:16.227Z,3.33
2023-10-23T05:18:02.412Z,3.60
2023-10-23T05:20:50.410Z,3.27
2023-10-23T05:23:36.715Z,3.70
2023-10-23T05:26:23.477Z,3.57
2023-10-23T05:29:10.265Z,3.50
2023-10-23T05:31:57.028Z,3.10
2023-10-23T05:34:45.692Z,3.83
2023-10-23T05:37:35.219Z,3.47
2023-10-23T05:40:21.398Z,3.00
2023-10-23T05:43:07.666Z,2.93
2023-10-23T05:45:54.342Z,3.73
2023-10-23T05:48:40.818Z,3.70
2023-10-23T05:51:27.662Z,3.20
2023-10-23T05:54:18.017Z,5.60
2023-10-23T05:57:04.709Z,3.83
2023-10-23T05:59:51.015Z,3.20
2023-10-23T06:02:37.182Z,3.30
2023-10-23T06:05:23.413Z,3.07
2023-10-23T06:08:09.836Z,2.60
2023-10-23T06:10:57.999Z,3.70
2023-10-23T06:13:44.297Z,3.10
2023-10-23T06:16:30.681Z,3.30
2023-10-23T06:19:17.241Z,3.43
2023-10-23T06:22:03.617Z,3.30
2023-10-23T06:24:50.335Z,3.60
2023-10-23T06:27:38.440Z,3.47
2023-10-23T06:30:25.259Z,3.50
2023-10-23T06:33:11.942Z,3.10
2023-10-23T06:35:59.248Z,2.47
2023-10-23T06:38:45.609Z,3.07
2023-10-23T06:41:33.322Z,3.00
2023-10-23T06:44:21.829Z,3.07
2023-10-23T06:47:08.282Z,2.50
2023-10-23T06:49:54.445Z,3.30
2023-10-23T06:52:40.513Z,3.07
2023-10-23T06:55:28.825Z,3.90
2023-10-23T06:58:15.655Z,3.30
2023-10-23T07:01:09.018Z,3.20
2023-10-23T07:03:55.503Z,3.27
2023-10-23T07:06:42.195Z,3.50
2023-10-23T07:09:28.805Z,3.70
2023-10-23T07:12:15.316Z,3.40
2023-10-23T07:15:02.657Z,3.20
2023-10-23T07:17:50.586Z,3.30
2023-10-23T07:20:37.246Z,3.77
2023-10-23T07:23:24.295Z,2.90
2023-10-23T07:26:13.994Z,2.93
2023-10-23T07:29:00.770Z,3.30
2023-10-23T07:31:47.089Z,4.00
2023-10-23T07:34:35.194Z,4.00
2023-10-23T07:37:22.845Z,3.47
2023-10-23T07:40:10.226Z,3.40
2023-10-23T07:42:57.156Z,3.90
2023-10-23T07:45:44.019Z,4.00
2023-10-23T07:48:30.716Z,4.07
2023-10-23T07:51:18.375Z,3.60
2023-10-23T07:54:04.938Z,4.10
2023-10-23T07:56:51.394Z,3.43
2023-10-23T07:59:37.904Z,3.30
2023-10-23T08:02:24.517Z,3.50
2023-10-23T08:05:11.406Z,4.27
2023-10-23T08:07:59.375Z,2.97
2023-10-23T08:10:46.336Z,3.17
2023-10-23T08:13:33.313Z,3.40
2023-10-23T08:16:20.001Z,3.33
2023-10-23T08:19:06.810Z,3.33
2023-10-23T08:21:53.687Z,3.23
2023-10-23T08:24:41.799Z,2.60
2023-10-23T08:27:28.535Z,2.87
2023-10-23T08:30:15.531Z,2.70
2023-10-23T08:33:01.902Z,2.80
2023-10-23T08:35:48.825Z,2.53
2023-10-23T08:38:36.238Z,3.30
2023-10-23T08:41:23.990Z,2.67
2023-10-23T08:44:10.648Z,2.73
2023-10-23T08:46:56.958Z,3.40
2023-10-23T08:49:43.764Z,2.73
2023-10-23T08:52:34.022Z,2.80
2023-10-23T08:55:21.077Z,2.30
2023-10-23T08:58:09.211Z,2.13
2023-10-23T09:00:56.139Z,2.10
2023-10-23T09:04:01.812Z,2.40
2023-10-23T09:06:49.222Z,2.27
2023-10-23T09:09:35.896Z,2.40
2023-10-23T09:12:31.337Z,2.43
2023-10-23T09:15:22.098Z,2.50
2023-10-23T09:18:09.411Z,2.40
2023-10-23T09:20:58.502Z,2.53
2023-10-23T09:23:52.585Z,2.27
2023-10-23T09:26:38.791Z,2.33
2023-10-23T09:29:25.182Z,3.20
2023-10-23T09:32:15.731Z,2.93
2023-10-23T09:35:02.494Z,3.20
2023-10-23T09:37:48.783Z,2.93
2023-10-23T09:40:34.951Z,3.43
2023-10-23T09:43:21.575Z,3.10
2023-10-23T09:46:10.045Z,3.20
2023-10-23T09:49:01.443Z,2.80
2023-10-23T09:51:51.284Z,2.70
2023-10-23T09:54:39.904Z,3.57
2023-10-23T09:57:32.555Z,3.90
2023-10-23T10:00:19.268Z,2.50
2023-10-23T10:03:10.731Z,2.80
2023-10-23T10:06:08.336Z,3.40
2023-10-23T10:08:56.331Z,2.90
2023-10-23T10:11:44.669Z,2.90
2023-10-23T10:14:31.449Z,3.03
2023-10-23T10:17:18.929Z,3.20
2023-10-23T10:20:06.941Z,2.57
2023-10-23T10:22:59.725Z,3.27
2023-10-23T10:25:47.835Z,2.50
2023-10-23T10:28:38.690Z,2.80
2023-10-23T10:31:25.197Z,2.80
2023-10-23T10:34:27.101Z,2.40
2023-10-23T10:37:25.861Z,2.13
2023-10-23T10:40:14.650Z,2.33
2023-10-23T10:43:07.830Z,2.27
2023-10-23T10:45:56.561Z,2.37
2023-10-23T10:48:44.332Z,1.97
2023-10-23T10:51:31.719Z,2.37
2023-10-23T10:54:19.184Z,2.40
2023-10-23T10:57:06.901Z,2.20
2023-10-23T10:59:56.714Z,2.20
2023-10-23T11:02:43.398Z,2.20
2023-10-23T11:05:30.072Z,2.07
2023-10-23T11:08:16.451Z,1.87
2023-10-23T11:11:05.877Z,2.17
2023-10-23T11:13:54.178Z,2.10
2023-10-23T11:16:40.841Z,1.73
2023-10-23T11:19:27.720Z,1.90
2023-10-23T11:22:16.136Z,2.43
2023-10-23T11:25:02.726Z,2.00
2023-10-23T11:27:52.939Z,2.17
2023-10-23T11:30:48.190Z,1.60
2023-10-23T11:33:35.087Z,2.17
2023-10-23T11:36:22.667Z,2.00
2023-10-23T11:39:10.067Z,1.97
2023-10-23T11:41:57.771Z,1.53
2023-10-23T11:44:44.590Z,1.50
2023-10-23T11:47:32.340Z,1.80
2023-10-23T11:50:22.433Z,1.43
2023-10-23T11:53:09.260Z,1.80
2023-10-23T11:55:56.256Z,1.67
2023-10-23T11:58:46.201Z,1.77
2023-10-23T12:01:32.810Z,1.90
2023-10-23T12:04:21.044Z,1.57
2023-10-23T12:07:07.959Z,2.20
2023-10-23T12:09:54.710Z,2.10
2023-10-23T12:12:43.585Z,1.67
2023-10-23T12:15:30.388Z,1.80
2023-10-23T12:18:16.668Z,2.10
2023-10-23T12:21:06.211Z,1.37
2023-10-23T12:23:52.453Z,1.70
2023-10-23T12:26:39.114Z,1.83
2023-10-23T12:29:25.545Z,1.30
2023-10-23T12:33:17.907Z,1.60
2023-10-23T12:35:19.968Z,1.53
2023-10-23T12:38:08.091Z,1.57
2023-10-23T12:40:54.613Z,1.80
2023-10-23T12:43:40.910Z,1.57
2023-10-23T12:46:27.769Z,1.60
2023-10-23T12:49:14.572Z,1.80
2023-10-23T12:52:01.412Z,1.40
2023-10-23T12:54:49.779Z,1.73
2023-10-23T12:57:36.426Z,2.07
2023-10-23T13:00:22.663Z,2.00
2023-10-23T13:03:08.957Z,1.80
2023-10-23T13:05:55.361Z,1.63
2023-10-23T13:08:42.091Z,1.90
2023-10-23T13:11:31.651Z,1.87
2023-10-23T13:14:18.189Z,1.30
2023-10-23T13:17:04.477Z,1.77
2023-10-23T13:19:51.141Z,1.90
2023-10-23T13:22:37.352Z,1.80
2023-10-23T13:25:24.197Z,2.23
2023-10-23T13:28:12.365Z,2.10
2023-10-23T13:30:59.869Z,1.90
2023-10-23T13:33:46.689Z,2.10
2023-10-23T13:36:32.988Z,1.67
2023-10-23T13:39:19.235Z,2.20
2023-10-23T13:42:05.923Z,2.00
2023-10-23T13:44:53.742Z,2.50
2023-10-23T13:47:40.058Z,2.43
2023-10-23T13:50:26.995Z,2.40
2023-10-23T13:53:13.748Z,2.50
2023-10-23T13:56:00.042Z,2.97
2023-10-23T13:58:49.039Z,2.63
2023-10-23T14:01:37.020Z,2.50
2023-10-23T14:04:23.685Z,2.80
2023-10-23T14:07:13.159Z,2.50
2023-10-23T14:09:59.764Z,2.27
2023-10-23T14:12:47.856Z,2.57
2023-10-23T14:15:34.261Z,2.80
2023-10-23T14:18:21.921Z,2.33
2023-10-23T14:21:08.172Z,2.70
2023-10-23T14:23:54.355Z,2.40
2023-10-23T14:26:40.705Z,2.83
2023-10-23T14:29:27.060Z,2.00
2023-10-23T14:32:13.392Z,2.80
2023-10-23T14:35:01.843Z,2.77
2023-10-23T14:37:48.299Z,3.20
2023-10-23T14:40:34.582Z,3.20
2023-10-23T14:43:21.349Z,2.87
2023-10-23T14:46:08.235Z,3.80
2023-10-23T14:48:55.020Z,3.10
2023-10-23T14:51:43.050Z,3.20
2023-10-23T14:54:29.503Z,2.80
2023-10-23T14:57:15.956Z,3.10
2023-10-23T15:00:02.232Z,3.27
2023-10-23T15:02:48.357Z,3.70
2023-10-23T15:05:35.087Z,4.00
2023-10-23T15:08:23.259Z,3.67
2023-10-23T15:11:13.687Z,4.00
2023-10-23T15:14:00.022Z,4.33
2023-10-23T15:16:46.856Z,4.07
2023-10-23T15:19:33.641Z,3.70
2023-10-23T15:22:20.406Z,4.93
2023-10-23T15:25:09.991Z,4.20
2023-10-23T15:27:56.684Z,4.17
2023-10-23T15:30:43.508Z,4.90
2023-10-23T15:33:30.516Z,4.60
2023-10-23T15:36:17.030Z,5.20
2023-10-23T15:39:04.598Z,5.10
2023-10-23T15:41:52.540Z,5.67
2023-10-23T15:44:38.921Z,5.10
2023-10-23T15:47:25.387Z,4.90
2023-10-23T15:50:12.105Z,4.83
2023-10-23T15:52:59.289Z,5.10
2023-10-23T15:55:48.941Z,4.80
2023-10-23T15:58:36.899Z,5.17
2023-10-23T16:01:23.405Z,4.70
2023-10-23T16:04:10.301Z,4.60
2023-10-23T16:06:56.890Z,5.30
2023-10-23T16:09:43.696Z,5.17
2023-10-23T16:12:29.869Z,5.43
2023-10-23T16:15:18.694Z,5.30
2023-10-23T16:18:05.670Z,5.70
2023-10-23T16:20:52.467Z,5.10
2023-10-23T16:23:38.774Z,5.50
2023-10-23T16:26:25.100Z,5.60
2023-10-23T16:29:11.875Z,5.57
2023-10-23T16:31:59.601Z,5.20
2023-10-23T16:34:46.284Z,4.93
2023-10-23T16:37:32.586Z,4.97
2023-10-23T16:40:19.557Z,5.40
2023-10-23T16:43:06.502Z,4.70
2023-10-23T16:45:53.165Z,5.80
2023-10-23T16:48:42.501Z,5.30
2023-10-23T16:51:29.311Z,5.70
2023-10-23T16:54:15.688Z,5.20
2023-10-23T16:57:02.070Z,5.10
2023-10-23T16:59:48.374Z,4.63
2023-10-23T17:02:34.741Z,4.87
2023-10-23T17:05:22.510Z,4.60
2023-10-23T17:08:09.380Z,5.17
2023-10-23T17:11:04.627Z,4.93
2023-10-23T17:13:50.912Z,5.47
2023-10-23T17:16:37.322Z,5.23
2023-10-23T17:19:24.057Z,5.17
2023-10-23T17:22:13.836Z,5.30
2023-10-23T17:25:01.134Z,5.30
2023-10-23T17:27:47.995Z,4.90
2023-10-23T17:30:34.897Z,5.03
2023-10-23T17:33:23.191Z,4.80
2023-10-23T17:36:09.729Z,5.77
2023-10-23T17:38:57.674Z,5.97
2023-10-23T17:41:44.260Z,5.33
2023-10-23T17:44:31.404Z,5.67
2023-10-23T17:47:17.842Z,5.63
2023-10-23T17:50:05.103Z,5.93
2023-10-23T17:52:51.384Z,5.67
2023-10-23T17:55:41.766Z,5.37
2023-10-23T17:58:28.374Z,6.90
2023-10-23T18:01:17.578Z,6.67
2023-10-23T18:04:04.242Z,6.70
2023-10-23T18:06:50.728Z,6.90
2023-10-23T18:09:37.541Z,6.93
2023-10-23T18:12:37.354Z,6.47
2023-10-23T18:15:25.041Z,6.60
2023-10-23T18:18:13.023Z,7.03
2023-10-23T18:21:00.942Z,7.00
2023-10-23T18:23:47.413Z,7.60
2023-10-23T18:26:37.365Z,7.40
2023-10-23T18:29:25.306Z,7.90
2023-10-23T18:32:11.681Z,6.87
2023-10-23T18:35:00.673Z,8.13
2023-10-23T18:37:47.091Z,8.33
2023-10-23T18:40:35.940Z,8.07
2023-10-23T18:43:24.211Z,8.03
2023-10-23T18:46:13.276Z,9.27
2023-10-23T18:49:00.318Z,7.83
2023-10-23T18:51:47.068Z,9.90
2023-10-23T18:54:35.641Z,9.43
2023-10-23T18:57:22.110Z,10.10
2023-10-23T19:00:10.655Z,10.90
2023-10-23T19:02:59.104Z,11.80
2023-10-23T19:05:46.296Z,11.17
2023-10-23T19:08:32.770Z,13.07
2023-10-23T19:11:19.568Z,11.20
2023-10-23T19:14:06.010Z,11.30
2023-10-23T19:16:52.329Z,10.50
2023-10-23T19:19:40.733Z,11.60
2023-10-23T19:22:27.472Z,9.57
2023-10-23T19:25:14.211Z,9.27
2023-10-23T19:28:01.642Z,8.10
2023-10-23T19:30:48.536Z,8.90
2023-10-23T19:33:35.728Z,8.10
2023-10-23T19:36:25.505Z,7.13
2023-10-23T19:39:12.860Z,7.60
2023-10-23T19:42:01.467Z,7.60
2023-10-23T19:44:48.470Z,6.93
2023-10-23T19:47:35.443Z,6.23
2023-10-23T19:50:22.530Z,5.90
2023-10-23T19:53:14.202Z,6.10
2023-10-23T19:56:01.488Z,6.27
2023-10-23T19:58:48.353Z,5.80
2023-10-23T20:01:34.824Z,5.50
2023-10-23T20:04:23.871Z,5.70
2023-10-23T20:07:12.358Z,5.70
2023-10-23T20:10:00.700Z,5.60
2023-10-23T20:12:47.218Z,5.30
2023-10-23T20:15:33.396Z,6.40
2023-10-23T20:18:20.054Z,5.57
2023-10-23T20:21:06.976Z,5.70
2023-10-23T20:23:53.899Z,5.53
2023-10-23T20:26:41.745Z,5.27
2023-10-23T20:29:28.079Z,5.27
2023-10-23T20:32:14.627Z,5.40
2023-10-23T20:35:01.331Z,4.40
2023-10-23T20:37:48.209Z,4.40
2023-10-23T20:40:38.182Z,5.37
2023-10-23T20:43:26.129Z,4.60
2023-10-23T20:46:12.897Z,3.90
2023-10-23T20:49:00.064Z,3.90
2023-10-23T20:51:46.696Z,3.90
2023-10-23T20:54:32.839Z,4.43
2023-10-23T20:57:19.432Z,4.30
2023-10-23T21:00:09.599Z,4.40
2023-10-23T21:02:56.326Z,4.57
2023-10-23T21:05:43.115Z,4.00
2023-10-23T21:08:29.485Z,4.50
2023-10-23T21:11:18.114Z,4.17
2023-10-23T21:14:04.831Z,3.97
2023-10-23T21:16:52.943Z,4.20
2023-10-23T21:19:39.913Z,3.80
2023-10-23T21:22:26.403Z,5.67
2023-10-23T21:25:13.123Z,4.30
2023-10-23T21:27:59.899Z,4.20
2023-10-23T21:30:46.088Z,4.67
2023-10-23T21:33:34.284Z,5.07
2023-10-23T21:36:20.744Z,4.20
2023-10-23T21:39:10.614Z,4.50
2023-10-23T21:41:57.170Z,4.33
2023-10-23T21:44:43.735Z,4.20
2023-10-23T21:47:30.129Z,4.87
2023-10-23T21:50:19.117Z,4.40
2023-10-23T21:53:05.999Z,4.30
2023-10-23T21:55:52.763Z,4.30
2023-10-23T21:59:07.924Z,4.60
2023-10-23T22:01:46.776Z,3.97
2023-10-23T22:04:34.166Z,3.87
2023-10-23T22:07:22.821Z,3.60
2023-10-23T22:10:10.923Z,4.17
2023-10-23T22:12:58.727Z,4.10
2023-10-23T22:15:45.721Z,4.90
2023-10-23T22:18:34.897Z,3.80
2023-10-23T22:21:21.360Z,3.60
2023-10-23T22:24:10.413Z,3.20
2023-10-23T22:26:57.133Z,3.77
2023-10-23T22:29:43.412Z,3.93
2023-10-23T22:32:29.721Z,4.57
2023-10-23T22:35:16.203Z,4.40
2023-10-23T22:38:08.843Z,5.20
2023-10-23T22:40:57.134Z,5.00
2023-10-23T22:43:43.331Z,5.40
2023-10-23T22:46:30.311Z,5.07
2023-10-23T22:49:17.247Z,5.10
2023-10-23T22:52:04.884Z,4.97
2023-10-23T22:54:52.417Z,5.30
2023-10-23T22:57:41.392Z,5.80
2023-10-23T23:00:28.547Z,5.90
2023-10-23T23:03:15.246Z,6.50
2023-10-23T23:06:06.313Z,7.30
2023-10-23T23:08:53.709Z,6.90
2023-10-23T23:11:40.380Z,7.27
2023-10-23T23:14:29.077Z,8.10
2023-10-23T23:17:16.997Z,8.47
2023-10-23T23:20:05.392Z,9.63
2023-10-23T23:22:52.477Z,10.30
2023-10-23T23:25:38.732Z,9.13
2023-10-23T23:28:25.426Z,9.20
2023-10-23T23:31:13.723Z,9.57
2023-10-23T23:34:00.322Z,8.80
2023-10-23T23:36:47.031Z,10.20
2023-10-23T23:39:33.385Z,9.53
2023-10-23T23:42:20.273Z,10.40
2023-10-23T23:45:07.508Z,9.73
2023-10-23T23:47:55.245Z,10.13
2023-10-23T23:50:41.969Z,9.80
2023-10-23T23:53:28.252Z,10.27
2023-10-23T23:56:14.556Z,10.10
2023-10-23T23:59:00.963Z,11.20
